Terminal Aerodrome Forecast
Issued by NWS Buffalo, NY

Home | Current Version | Previous Version | Text Only | Print | Product List | Glossary On
Versions: 1 2 3 4 5 6 7 8 9 10 11 12 13 14 15 16 17 18 19 20 21 22 23 24 25
000
FTUS41 KBUF 290300 AAA
TAFBUF
TAF AMD
KBUF 290315Z 2903/2924 18004KT P6SM SCT250
     FM290600 16006KT P6SM SCT120 OVC200
     FM291000 15008KT P6SM BKN100
     FM291500 15015G22KT P6SM OVC070
     FM291800 17018G24KT 2SM -SN SCT025 OVC035
     FM292100 19014G20KT 1SM -SN OVC015=

USA.gov is the U.S. government's official web portal to all federal, state and local government web resources and services.